Time;durP1;ratioP1;P1;durP2;ratioP2;P2;SDS_P1;SDS_P2;PMS_P1;PMS_P2;Temp;Humidity;BMP_temperature;BMP_pressure;BME280_temperature;BME280_humidity;BME280_pressure;Samples;Min_cycle;Max_cycle;Signal;HPM_P1;HPM_P2
2023/12/02 00:01:35;;;;;;;21.60;13.77;;;1.40;79.90;;;;;;5028161;28;20237;-76
2023/12/02 00:04:03;;;;;;;23.30;12.35;;;1.40;80.10;;;;;;5025064;28;20204;-75
2023/12/02 00:06:31;;;;;;;22.90;13.27;;;1.40;80.10;;;;;;5028870;28;20227;-74
2023/12/02 00:09:02;;;;;;;25.88;14.02;;;1.50;80.20;;;;;;5025922;28;20222;-76
2023/12/02 00:11:32;;;;;;;22.55;13.93;;;1.50;80.20;;;;;;5027077;28;20312;-76
2023/12/02 00:14:00;;;;;;;25.17;13.18;;;1.60;80.20;;;;;;5025733;28;20208;-76
2023/12/02 00:16:28;;;;;;;22.85;13.38;;;1.60;80.20;;;;;;5027566;28;20240;-76
2023/12/02 00:18:56;;;;;;;21.90;13.13;;;1.60;79.90;;;;;;5028273;28;20207;-74
2023/12/02 00:21:24;;;;;;;21.20;12.57;;;1.60;79.90;;;;;;5027558;28;20663;-75
2023/12/02 00:23:53;;;;;;;24.48;12.93;;;1.50;79.80;;;;;;5024326;28;20206;-76
2023/12/02 00:26:20;;;;;;;21.95;13.20;;;1.20;79.80;;;;;;5026091;28;20684;-76
2023/12/02 00:28:57;;;;;;;24.65;14.18;;;1.20;79.90;;;;;;5029296;28;20206;-76
2023/12/02 00:31:25;;;;;;;23.42;13.48;;;1.20;80.00;;;;;;5025912;28;20232;-76
2023/12/02 00:33:53;;;;;;;24.48;13.82;;;1.20;80.00;;;;;;5030700;28;20205;-77
2023/12/02 00:36:21;;;;;;;22.75;13.27;;;1.20;80.10;;;;;;5022388;28;20244;-76
2023/12/02 00:38:51;;;;;;;23.05;13.40;;;1.10;80.20;;;;;;5026043;28;20240;-76
2023/12/02 00:41:20;;;;;;;27.85;14.88;;;1.20;80.20;;;;;;5027785;28;20209;-76
2023/12/02 00:43:48;;;;;;;23.98;13.68;;;1.10;80.30;;;;;;5027872;28;20206;-76
2023/12/02 00:46:17;;;;;;;25.38;15.40;;;1.20;80.30;;;;;;5026297;28;20197;-76
2023/12/02 00:48:46;;;;;;;24.38;13.95;;;1.10;80.20;;;;;;5023674;28;22162;-76
2023/12/02 00:51:14;;;;;;;34.65;21.98;;;1.20;80.30;;;;;;5024900;28;20584;-76
2023/12/02 00:53:42;;;;;;;28.83;16.55;;;1.20;80.30;;;;;;5027160;28;21559;-76
2023/12/02 00:56:11;;;;;;;38.90;19.63;;;1.20;80.10;;;;;;5036388;28;20225;-76
2023/12/02 00:58:39;;;;;;;34.90;17.42;;;1.20;80.30;;;;;;5026639;28;20307;-76
2023/12/02 01:01:09;;;;;;;39.45;20.58;;;1.30;80.20;;;;;;5025464;28;20221;-76
2023/12/02 01:03:38;;;;;;;30.45;16.55;;;1.40;80.30;;;;;;5027186;28;20220;-76
2023/12/02 01:06:07;;;;;;;28.65;15.43;;;1.40;80.30;;;;;;5032687;28;20204;-76
2023/12/02 01:08:35;;;;;;;25.67;14.35;;;1.40;80.00;;;;;;5028384;28;20202;-76
2023/12/02 01:11:03;;;;;;;31.70;18.17;;;1.30;79.80;;;;;;5030158;28;20224;-76
2023/12/02 01:13:31;;;;;;;33.90;17.95;;;1.20;79.80;;;;;;5030257;28;20197;-76
2023/12/02 01:15:59;;;;;;;27.45;15.60;;;1.10;80.00;;;;;;5028236;28;20220;-76
2023/12/02 01:18:27;;;;;;;25.65;14.93;;;1.20;80.20;;;;;;5028583;28;20535;-76
2023/12/02 01:20:56;;;;;;;39.13;19.35;;;1.20;80.20;;;;;;5027948;28;20201;-76
2023/12/02 01:23:24;;;;;;;30.77;16.80;;;1.20;80.20;;;;;;5029508;28;20205;-76
2023/12/02 01:25:52;;;;;;;51.92;25.73;;;1.30;80.30;;;;;;5028483;28;20207;-76
2023/12/02 01:28:20;;;;;;;50.63;26.15;;;1.40;80.30;;;;;;5025119;28;20296;-76
2023/12/02 01:30:49;;;;;;;46.58;21.75;;;1.50;80.40;;;;;;5031924;28;20228;-76
2023/12/02 01:33:17;;;;;;;36.40;19.70;;;1.50;80.10;;;;;;5042704;28;20291;-75
2023/12/02 01:35:45;;;;;;;36.83;19.00;;;1.50;79.80;;;;;;5047430;28;20911;-75
2023/12/02 01:38:14;;;;;;;42.80;21.45;;;1.40;79.70;;;;;;5047791;28;20223;-75
2023/12/02 01:40:43;;;;;;;34.75;18.10;;;1.40;79.70;;;;;;5048108;28;20203;-76
2023/12/02 01:43:23;;;;;;;26.83;15.05;;;1.40;79.80;;;;;;5043534;28;20196;-75
2023/12/02 01:45:51;;;;;;;26.92;15.30;;;1.30;79.70;;;;;;5048065;28;20599;-76
2023/12/02 01:48:20;;;;;;;20.55;12.63;;;1.30;79.70;;;;;;5047328;28;20796;-75
2023/12/02 01:50:49;;;;;;;29.15;17.73;;;1.30;79.60;;;;;;5042270;28;20218;-76
2023/12/02 01:53:18;;;;;;;32.10;16.67;;;1.20;79.60;;;;;;5047200;28;20196;-77
2023/12/02 01:55:46;;;;;;;28.40;15.00;;;1.10;79.50;;;;;;5046283;28;20208;-76
2023/12/02 01:58:14;;;;;;;30.45;16.92;;;1.10;79.50;;;;;;5045780;28;20224;-76
2023/12/02 02:00:42;;;;;;;40.20;20.48;;;1.00;79.60;;;;;;5037647;28;20247;-76
2023/12/02 02:03:10;;;;;;;26.20;15.35;;;1.00;79.60;;;;;;5042504;28;20541;-76
2023/12/02 02:05:39;;;;;;;24.40;13.82;;;1.00;79.70;;;;;;5040702;28;20305;-76
2023/12/02 02:08:07;;;;;;;27.00;15.82;;;1.00;79.70;;;;;;5049168;28;20208;-76
2023/12/02 02:10:37;;;;;;;24.20;13.50;;;1.00;79.90;;;;;;5057172;28;20212;-75
2023/12/02 02:13:04;;;;;;;25.80;14.02;;;1.10;79.90;;;;;;5045829;28;20219;-75
2023/12/02 02:15:32;;;;;;;25.10;14.05;;;1.10;79.70;;;;;;5051543;28;20687;-75
2023/12/02 02:18:00;;;;;;;19.83;11.93;;;1.10;79.70;;;;;;5046680;28;20307;-75
2023/12/02 02:20:28;;;;;;;22.40;13.00;;;1.10;79.60;;;;;;5043040;28;20820;-75
2023/12/02 02:22:58;;;;;;;21.85;12.32;;;1.10;79.60;;;;;;5045269;28;20279;-75
2023/12/02 02:25:31;;;;;;;23.75;13.82;;;1.00;79.50;;;;;;5043606;28;20196;-75
2023/12/02 02:28:00;;;;;;;23.55;12.68;;;1.00;79.50;;;;;;5045378;28;20204;-75
2023/12/02 02:30:28;;;;;;;23.13;13.02;;;0.90;79.50;;;;;;5043503;28;20239;-75
2023/12/02 02:32:56;;;;;;;24.23;13.15;;;1.00;79.50;;;;;;5035570;28;20270;-75
2023/12/02 02:35:24;;;;;;;27.15;14.65;;;0.90;79.70;;;;;;5025698;28;20209;-75
2023/12/02 02:37:52;;;;;;;25.27;14.32;;;0.90;79.70;;;;;;5024769;28;20229;-75
2023/12/02 02:40:21;;;;;;;24.88;13.50;;;1.00;79.60;;;;;;5022649;28;20205;-75
2023/12/02 02:42:49;;;;;;;23.17;13.55;;;1.10;79.90;;;;;;5022912;28;20197;-75
2023/12/02 02:45:17;;;;;;;22.63;13.65;;;1.10;79.80;;;;;;5021520;28;20274;-75
2023/12/02 02:47:46;;;;;;;21.73;13.25;;;1.10;79.60;;;;;;5041999;28;20208;-74
2023/12/02 02:50:14;;;;;;;24.42;14.27;;;1.10;79.50;;;;;;5027988;28;20219;-75
2023/12/02 02:52:42;;;;;;;22.83;13.43;;;1.10;79.50;;;;;;5028848;28;20200;-75
2023/12/02 02:55:10;;;;;;;22.90;12.20;;;1.20;79.80;;;;;;5026753;28;20205;-76
2023/12/02 02:57:39;;;;;;;19.92;11.02;;;1.20;79.50;;;;;;5025295;28;20232;-75
2023/12/02 03:00:09;;;;;;;22.83;12.63;;;1.10;79.30;;;;;;5028815;28;20213;-76
2023/12/02 03:02:38;;;;;;;19.45;12.43;;;1.10;79.30;;;;;;5031209;28;20236;-75
2023/12/02 03:05:06;;;;;;;26.00;13.70;;;1.10;79.50;;;;;;5028916;28;20213;-75
2023/12/02 03:07:35;;;;;;;21.75;13.68;;;1.10;79.50;;;;;;5032464;28;20201;-75
2023/12/02 03:10:03;;;;;;;22.38;13.30;;;1.10;79.40;;;;;;5033183;28;20215;-76
2023/12/02 03:12:31;;;;;;;19.02;12.25;;;1.00;79.30;;;;;;5028721;28;20212;-76
2023/12/02 03:15:01;;;;;;;20.20;11.55;;;1.00;79.30;;;;;;5028984;28;20811;-75
2023/12/02 03:17:29;;;;;;;23.02;14.00;;;1.00;79.50;;;;;;5027490;28;20228;-75
2023/12/02 03:19:58;;;;;;;22.05;12.55;;;1.00;79.30;;;;;;5030143;28;20232;-76
2023/12/02 03:22:26;;;;;;;23.35;13.25;;;1.00;79.30;;;;;;5029806;28;20561;-75
2023/12/02 03:24:55;;;;;;;20.10;11.60;;;1.00;79.30;;;;;;5027990;28;20296;-75
2023/12/02 03:27:23;;;;;;;23.80;14.25;;;0.90;79.40;;;;;;5030233;28;20193;-75
2023/12/02 03:29:51;;;;;;;22.92;12.90;;;0.90;79.40;;;;;;5028356;28;20220;-74
2023/12/02 03:32:20;;;;;;;23.95;12.60;;;0.90;79.50;;;;;;5028802;28;20231;-75
2023/12/02 03:34:48;;;;;;;23.30;13.48;;;0.80;79.40;;;;;;5030042;28;20601;-75
2023/12/02 03:37:16;;;;;;;24.13;13.88;;;0.80;79.50;;;;;;5028601;28;20649;-75
2023/12/02 03:39:44;;;;;;;22.20;13.70;;;0.80;79.50;;;;;;5029158;28;20200;-75
2023/12/02 03:42:12;;;;;;;20.83;12.98;;;0.80;79.50;;;;;;5030836;28;20213;-75
2023/12/02 03:44:40;;;;;;;20.88;13.02;;;0.80;79.50;;;;;;5031771;28;20248;-76
2023/12/02 03:47:08;;;;;;;22.92;12.40;;;0.80;79.50;;;;;;5030942;28;20205;-75
2023/12/02 03:49:37;;;;;;;23.60;11.90;;;0.80;79.40;;;;;;5029946;28;20272;-75
2023/12/02 03:52:06;;;;;;;24.73;13.18;;;0.70;79.40;;;;;;5033881;28;20714;-75
2023/12/02 03:54:33;;;;;;;21.58;11.85;;;0.70;79.40;;;;;;5027868;28;20215;-76
2023/12/02 03:57:01;;;;;;;23.08;12.55;;;0.70;79.30;;;;;;5032057;28;20205;-75
2023/12/02 03:59:29;;;;;;;21.05;12.98;;;0.70;79.30;;;;;;5042624;28;20232;-75
2023/12/02 04:01:57;;;;;;;20.80;12.48;;;0.70;79.50;;;;;;5041068;28;20692;-76
2023/12/02 04:04:26;;;;;;;21.38;11.38;;;0.80;79.60;;;;;;5050952;28;20683;-76
2023/12/02 04:06:55;;;;;;;24.38;12.30;;;0.80;79.30;;;;;;5051019;28;20212;-76
2023/12/02 04:09:23;;;;;;;19.60;11.07;;;0.80;79.30;;;;;;5049156;28;20286;-76
2023/12/02 04:11:51;;;;;;;21.73;12.18;;;0.80;79.10;;;;;;5053785;28;20266;-76
2023/12/02 04:14:19;;;;;;;19.65;11.85;;;0.80;79.30;;;;;;5051026;28;20590;-76
2023/12/02 04:16:47;;;;;;;20.08;12.23;;;0.80;79.10;;;;;;5052447;28;20517;-75
2023/12/02 04:19:15;;;;;;;22.95;12.48;;;0.80;79.10;;;;;;5051224;28;20204;-76
2023/12/02 04:21:44;;;;;;;22.95;12.35;;;0.80;79.10;;;;;;5047983;28;20204;-76
2023/12/02 04:24:14;;;;;;;20.08;11.10;;;0.80;79.00;;;;;;5052629;28;20652;-75
2023/12/02 04:26:42;;;;;;;23.40;12.23;;;0.80;79.00;;;;;;5047546;28;20583;-75
2023/12/02 04:29:10;;;;;;;22.58;12.77;;;0.90;79.10;;;;;;5044356;28;20299;-76
2023/12/02 04:31:38;;;;;;;21.10;12.40;;;1.00;79.10;;;;;;5051995;28;20235;-76
2023/12/02 04:34:06;;;;;;;17.98;11.23;;;1.00;79.10;;;;;;5049279;28;20822;-76
2023/12/02 04:36:34;;;;;;;23.08;13.38;;;1.00;78.90;;;;;;5052363;28;20609;-76
2023/12/02 04:39:03;;;;;;;23.48;12.38;;;1.00;78.80;;;;;;5048503;28;20228;-75
2023/12/02 04:41:33;;;;;;;25.27;12.57;;;1.00;78.90;;;;;;5049945;28;20200;-75
2023/12/02 04:44:01;;;;;;;26.45;13.20;;;1.10;79.10;;;;;;5044495;28;20215;-76
2023/12/02 04:46:30;;;;;;;24.20;14.05;;;1.20;79.20;;;;;;5045217;28;20262;-76
2023/12/02 04:48:58;;;;;;;23.85;13.75;;;1.30;79.30;;;;;;5047897;28;20203;-75
2023/12/02 04:51:26;;;;;;;27.05;15.60;;;1.40;79.10;;;;;;5044724;28;20205;-76
2023/12/02 04:53:54;;;;;;;26.15;15.55;;;1.50;78.90;;;;;;5046150;28;20204;-76
2023/12/02 04:56:22;;;;;;;28.80;14.13;;;1.50;78.70;;;;;;5045360;28;20205;-76
2023/12/02 04:58:52;;;;;;;18.13;11.70;;;1.50;78.70;;;;;;5049769;28;20223;-76
2023/12/02 05:01:20;;;;;;;24.73;13.13;;;1.40;78.50;;;;;;5048773;28;20259;-76
2023/12/02 05:03:47;;;;;;;21.50;12.13;;;1.40;78.30;;;;;;5055865;28;20210;-76
2023/12/02 05:06:17;;;;;;;18.02;11.15;;;1.30;78.30;;;;;;5052697;28;20254;-76
2023/12/02 05:08:45;;;;;;;21.83;12.18;;;1.20;78.40;;;;;;5056654;28;20541;-76
2023/12/02 05:11:18;;;;;;;24.00;14.05;;;1.30;78.70;;;;;;5047510;28;20227;-76
2023/12/02 05:13:46;;;;;;;23.58;13.88;;;1.40;78.80;;;;;;5057651;28;20215;-76
2023/12/02 05:16:16;;;;;;;23.60;13.50;;;1.40;78.60;;;;;;5046646;28;20635;-76
2023/12/02 05:18:44;;;;;;;29.92;14.38;;;1.40;78.70;;;;;;5048014;28;20653;-76
2023/12/02 05:21:12;;;;;;;25.55;14.15;;;1.50;78.60;;;;;;5053127;28;21104;-76
2023/12/02 05:23:40;;;;;;;28.13;14.50;;;1.50;78.70;;;;;;5046311;28;20216;-75
2023/12/02 05:26:09;;;;;;;24.48;13.82;;;1.60;78.70;;;;;;5050215;28;20246;-76
2023/12/02 05:28:38;;;;;;;25.60;13.40;;;1.60;78.50;;;;;;5044834;28;20200;-76
2023/12/02 05:31:07;;;;;;;25.63;14.15;;;1.60;78.20;;;;;;5045522;28;20220;-76
2023/12/02 05:33:36;;;;;;;24.40;13.80;;;1.60;78.40;;;;;;5048473;28;20210;-76
2023/12/02 05:36:05;;;;;;;28.45;15.57;;;1.60;78.40;;;;;;5049125;28;20652;-76
2023/12/02 05:38:34;;;;;;;27.85;15.23;;;1.60;78.60;;;;;;5047444;28;20219;-76
2023/12/02 05:41:03;;;;;;;24.95;14.70;;;1.70;78.60;;;;;;5043990;28;20223;-76
2023/12/02 05:43:31;;;;;;;24.15;12.68;;;1.80;78.50;;;;;;5048372;28;20208;-75
2023/12/02 05:45:59;;;;;;;30.52;14.27;;;1.80;78.30;;;;;;5050918;28;20200;-76
2023/12/02 05:48:27;;;;;;;25.00;13.57;;;1.80;78.30;;;;;;5045692;28;20219;-76
2023/12/02 05:50:57;;;;;;;27.38;15.25;;;1.90;78.20;;;;;;5044127;28;20657;-76
2023/12/02 05:53:25;;;;;;;24.63;14.52;;;1.90;78.20;;;;;;5048538;28;20200;-76
2023/12/02 05:55:53;;;;;;;24.17;13.30;;;1.90;78.20;;;;;;5058770;28;20203;-76
2023/12/02 05:58:21;;;;;;;26.02;14.00;;;1.90;78.10;;;;;;5047883;28;20217;-76
2023/12/02 06:00:49;;;;;;;22.15;12.95;;;1.90;78.10;;;;;;5042710;28;20223;-76
2023/12/02 06:03:17;;;;;;;26.73;14.50;;;1.90;77.80;;;;;;5045413;28;20201;-76
2023/12/02 06:05:45;;;;;;;24.23;14.07;;;1.80;77.90;;;;;;5049406;28;21014;-76
2023/12/02 06:08:15;;;;;;;25.40;13.48;;;1.80;77.70;;;;;;5052598;28;20212;-76
2023/12/02 06:10:43;;;;;;;26.42;12.65;;;1.70;77.50;;;;;;5046054;28;20284;-75
2023/12/02 06:13:11;;;;;;;23.52;13.25;;;1.60;77.90;;;;;;5047823;28;20208;-76
2023/12/02 06:15:38;;;;;;;25.98;13.32;;;1.60;78.00;;;;;;5051902;28;20204;-76
2023/12/02 06:18:07;;;;;;;27.83;14.55;;;1.60;77.90;;;;;;5048246;28;20291;-76
2023/12/02 06:20:35;;;;;;;23.08;13.90;;;1.60;77.90;;;;;;5042276;28;20211;-76
2023/12/02 06:23:02;;;;;;;27.70;13.90;;;1.70;78.00;;;;;;5052726;28;20872;-76
2023/12/02 06:25:32;;;;;;;25.60;12.80;;;1.70;77.90;;;;;;5068036;28;20207;-76
2023/12/02 06:28:00;;;;;;;25.58;13.10;;;1.70;77.90;;;;;;5060111;28;20203;-76
2023/12/02 06:30:28;;;;;;;27.92;13.23;;;1.70;78.00;;;;;;5053765;28;20577;-76
2023/12/02 06:32:57;;;;;;;25.85;13.90;;;1.70;77.70;;;;;;5030097;28;20246;-76
2023/12/02 06:35:25;;;;;;;25.92;12.90;;;1.70;77.90;;;;;;5034127;28;20734;-76
2023/12/02 06:37:53;;;;;;;23.08;12.30;;;1.80;78.00;;;;;;5031502;28;20201;-76
2023/12/02 06:40:21;;;;;;;26.67;12.63;;;1.80;77.80;;;;;;5034663;28;20700;-75
2023/12/02 06:42:50;;;;;;;25.00;13.10;;;1.80;77.70;;;;;;5030894;28;20189;-76
2023/12/02 06:45:18;;;;;;;25.73;13.63;;;1.80;77.70;;;;;;5033006;28;20197;-76
2023/12/02 06:47:46;;;;;;;25.48;12.85;;;1.80;77.60;;;;;;5034641;28;20201;-76
2023/12/02 06:50:14;;;;;;;28.92;14.73;;;1.80;77.50;;;;;;5032331;28;20189;-76
2023/12/02 06:52:42;;;;;;;23.65;13.23;;;1.80;77.40;;;;;;5028571;28;20650;-76
2023/12/02 06:55:10;;;;;;;27.65;13.25;;;1.70;77.30;;;;;;5032922;28;20217;-76
2023/12/02 06:57:41;;;;;;;26.20;13.52;;;1.60;77.20;;;;;;5033615;28;20212;-76
2023/12/02 07:00:13;;;;;;;26.63;14.18;;;1.60;77.40;;;;;;5033355;28;20227;-76
2023/12/02 07:02:42;;;;;;;37.65;18.65;;;1.60;77.40;;;;;;5034933;28;20596;-76
2023/12/02 07:05:10;;;;;;;51.47;21.80;;;1.50;77.30;;;;;;5029079;28;20212;-76
2023/12/02 07:07:38;;;;;;;31.02;15.70;;;1.40;77.50;;;;;;5030548;28;20208;-75
2023/12/02 07:10:09;;;;;;;24.90;14.77;;;1.50;77.50;;;;;;5031525;28;20205;-76
2023/12/02 07:12:37;;;;;;;41.97;19.95;;;1.40;77.40;;;;;;5030098;28;20208;-76
2023/12/02 07:15:07;;;;;;;29.15;14.40;;;1.30;77.20;;;;;;5046542;28;20208;-75
2023/12/02 07:17:37;;;;;;;28.27;15.07;;;1.30;77.50;;;;;;5028148;28;20201;-76
2023/12/02 07:20:06;;;;;;;24.02;14.13;;;1.40;77.70;;;;;;5023392;28;20944;-76
2023/12/02 07:22:34;;;;;;;27.15;13.80;;;1.40;77.70;;;;;;5030893;28;20205;-76
2023/12/02 07:25:02;;;;;;;22.48;12.20;;;1.50;77.60;;;;;;5028890;28;20679;-76
2023/12/02 07:27:30;;;;;;;25.85;12.55;;;1.50;77.50;;;;;;5030161;28;20201;-76
2023/12/02 07:29:58;;;;;;;23.30;13.45;;;1.50;77.50;;;;;;5031137;28;20270;-76
2023/12/02 07:32:29;;;;;;;25.15;13.52;;;1.50;77.60;;;;;;5053611;28;20240;-76
2023/12/02 07:34:58;;;;;;;22.38;12.30;;;1.60;77.60;;;;;;5048100;28;20288;-76
2023/12/02 07:37:27;;;;;;;21.48;12.90;;;1.60;77.30;;;;;;5047830;28;20906;-75
2023/12/02 07:39:55;;;;;;;22.10;12.07;;;1.60;77.20;;;;;;5050712;28;20220;-76
2023/12/02 07:42:23;;;;;;;19.90;12.07;;;1.60;77.30;;;;;;5047351;28;20722;-76
2023/12/02 07:44:52;;;;;;;22.08;13.35;;;1.60;77.30;;;;;;5048981;28;20829;-76
2023/12/02 07:47:20;;;;;;;24.08;13.05;;;1.60;77.10;;;;;;5050867;28;20215;-76
2023/12/02 07:49:48;;;;;;;21.23;12.00;;;1.60;77.10;;;;;;5050368;28;20203;-76
2023/12/02 07:52:17;;;;;;;23.52;12.68;;;1.60;77.00;;;;;;5049067;28;20201;-76
2023/12/02 07:54:45;;;;;;;22.65;13.02;;;1.50;76.90;;;;;;5049660;28;20246;-75
2023/12/02 07:57:13;;;;;;;23.33;13.27;;;1.50;76.90;;;;;;5050595;28;20223;-76
2023/12/02 07:59:41;;;;;;;21.17;12.15;;;1.50;77.10;;;;;;5050056;28;20243;-75
2023/12/02 08:02:09;;;;;;;20.45;12.63;;;1.50;77.10;;;;;;5051164;28;20233;-76
2023/12/02 08:04:37;;;;;;;20.50;12.00;;;1.50;77.20;;;;;;5048780;28;20258;-75
2023/12/02 08:07:05;;;;;;;21.95;11.50;;;1.50;76.80;;;;;;5050771;28;20286;-75
2023/12/02 08:09:34;;;;;;;20.13;11.77;;;1.40;76.90;;;;;;5051197;28;20925;-76
2023/12/02 08:12:02;;;;;;;21.27;11.35;;;1.50;77.10;;;;;;5048611;28;20208;-76
2023/12/02 08:14:30;;;;;;;21.33;11.35;;;1.40;77.10;;;;;;5049477;28;20618;-76
2023/12/02 08:16:58;;;;;;;20.58;11.55;;;1.50;76.90;;;;;;5056408;28;20208;-76
2023/12/02 08:19:26;;;;;;;21.00;11.15;;;1.50;77.10;;;;;;5046726;28;20275;-76
2023/12/02 08:21:54;;;;;;;17.60;10.85;;;1.50;77.10;;;;;;5048645;28;20208;-76
2023/12/02 08:24:22;;;;;;;25.58;13.80;;;1.50;76.90;;;;;;5045978;28;20220;-76
2023/12/02 08:26:51;;;;;;;19.30;10.88;;;1.60;76.80;;;;;;5047663;28;20759;-76
2023/12/02 08:29:19;;;;;;;20.25;11.98;;;1.50;76.60;;;;;;5047281;28;20759;-76
2023/12/02 08:31:47;;;;;;;33.10;16.35;;;1.50;76.50;;;;;;5043796;28;20229;-76
2023/12/02 08:34:16;;;;;;;31.52;16.88;;;1.40;76.50;;;;;;5044760;28;20208;-76
2023/12/02 08:36:44;;;;;;;26.70;14.65;;;1.40;76.50;;;;;;5046893;28;20212;-76
2023/12/02 08:39:12;;;;;;;47.83;26.30;;;1.30;76.60;;;;;;5044627;28;20218;-76
2023/12/02 08:41:40;;;;;;;34.67;21.27;;;1.30;76.60;;;;;;5046471;28;20870;-75
2023/12/02 08:44:10;;;;;;;24.30;11.73;;;1.20;76.40;;;;;;5048763;28;20200;-75
2023/12/02 08:46:41;;;;;;;16.52;11.00;;;1.20;76.70;;;;;;5056540;28;20200;-75
2023/12/02 08:49:09;;;;;;;19.92;12.73;;;1.20;76.70;;;;;;5046265;28;20265;-75
2023/12/02 08:51:39;;;;;;;20.90;12.18;;;1.30;77.00;;;;;;5048318;28;20200;-76
2023/12/02 08:54:07;;;;;;;19.55;12.32;;;1.40;76.70;;;;;;5055857;28;20267;-76
2023/12/02 08:56:35;;;;;;;19.67;12.95;;;1.40;76.60;;;;;;5047031;28;20240;-75
2023/12/02 08:59:03;;;;;;;19.00;9.68;;;1.50;76.70;;;;;;5050524;28;20204;-76
2023/12/02 09:01:34;;;;;;;16.05;8.93;;;1.50;76.70;;;;;;5043118;28;20228;-76
2023/12/02 09:04:03;;;;;;;23.00;11.50;;;1.50;76.50;;;;;;5042420;28;20205;-75
2023/12/02 09:06:33;;;;;;;18.80;10.77;;;1.50;76.10;;;;;;5043663;28;20208;-75
2023/12/02 09:09:01;;;;;;;15.10;9.65;;;1.40;76.30;;;;;;5051958;28;20629;-76
2023/12/02 09:11:28;;;;;;;20.70;10.88;;;1.40;76.30;;;;;;5047125;28;20204;-75
2023/12/02 09:13:57;;;;;;;17.48;10.75;;;1.40;76.30;;;;;;5047012;28;20544;-76
2023/12/02 09:16:27;;;;;;;16.23;10.00;;;1.20;76.00;;;;;;5046742;28;20254;-75
2023/12/02 09:18:57;;;;;;;16.77;10.10;;;1.20;76.10;;;;;;5049599;28;20613;-75
2023/12/02 09:21:42;;;;;;;15.95;9.27;;;1.20;76.60;;;;;;5046494;28;20349;-76
2023/12/02 09:24:32;;;;;;;18.33;11.98;;;1.40;76.60;;;;;;5049725;28;20218;-76
2023/12/02 09:27:04;;;;;;;14.30;9.32;;;1.40;76.40;;;;;;5049065;28;20239;-75
2023/12/02 09:29:36;;;;;;;14.55;8.68;;;1.40;76.50;;;;;;5049408;28;20255;-75
2023/12/02 09:32:10;;;;;;;15.63;8.98;;;1.50;76.40;;;;;;5051055;28;20228;-76
2023/12/02 09:34:57;;;;;;;13.55;9.00;;;1.50;76.30;;;;;;5052050;28;20246;-76
2023/12/02 09:37:54;;;;;;;14.02;8.88;;;1.50;76.10;;;;;;5045166;28;20266;-75
2023/12/02 09:40:37;;;;;;;17.17;9.88;;;1.50;76.10;;;;;;5046622;28;20217;-75
2023/12/02 09:43:22;;;;;;;14.95;9.63;;;1.50;76.30;;;;;;5044507;28;20596;-75
2023/12/02 09:46:08;;;;;;;15.13;8.88;;;1.60;76.20;;;;;;5049202;28;20228;-75
2023/12/02 09:48:45;;;;;;;15.27;8.60;;;1.60;76.10;;;;;;5049052;28;20208;-75
2023/12/02 09:51:25;;;;;;;16.95;9.80;;;1.60;76.10;;;;;;5057231;28;20264;-75
2023/12/02 09:54:05;;;;;;;12.43;7.63;;;1.60;76.10;;;;;;5048738;28;20217;-76
2023/12/02 09:56:40;;;;;;;13.63;8.73;;;1.50;75.90;;;;;;5045398;28;20224;-76
2023/12/02 09:59:14;;;;;;;13.75;8.35;;;1.50;75.80;;;;;;5042657;28;20212;-76
2023/12/02 10:01:44;;;;;;;13.43;8.45;;;1.50;75.70;;;;;;5045724;28;20223;-75
2023/12/02 10:04:24;;;;;;;12.85;7.88;;;1.50;75.90;;;;;;5044455;28;20207;-76
2023/12/02 10:07:03;;;;;;;12.38;7.35;;;1.50;75.90;;;;;;5044893;28;20205;-76
2023/12/02 10:09:48;;;;;;;11.40;6.82;;;1.40;75.60;;;;;;5045930;28;20228;-76
2023/12/02 10:12:30;;;;;;;12.32;7.35;;;1.40;75.70;;;;;;5064915;28;20226;-76
2023/12/02 10:15:01;;;;;;;10.98;7.38;;;1.30;75.60;;;;;;5057448;28;20196;-76
2023/12/02 10:17:32;;;;;;;12.43;7.40;;;1.30;75.70;;;;;;5043914;28;20216;-76
2023/12/02 10:20:09;;;;;;;10.07;6.38;;;1.40;75.90;;;;;;5045920;28;20641;-75
2023/12/02 10:22:44;;;;;;;10.60;6.60;;;1.40;75.90;;;;;;5038395;28;20219;-75
2023/12/02 10:25:27;;;;;;;13.23;7.60;;;1.50;76.00;;;;;;5048565;28;20257;-76
2023/12/02 10:28:03;;;;;;;11.68;7.90;;;1.60;75.80;;;;;;5046071;28;20223;-76
2023/12/02 10:30:38;;;;;;;13.23;7.35;;;1.60;75.70;;;;;;5048372;28;20550;-76
2023/12/02 10:33:11;;;;;;;12.27;7.53;;;1.60;75.80;;;;;;5046911;28;20586;-76
2023/12/02 10:35:43;;;;;;;11.70;7.80;;;1.60;75.80;;;;;;5063996;28;20227;-76
2023/12/02 10:38:18;;;;;;;11.85;7.78;;;1.60;75.40;;;;;;5044124;28;20290;-76
2023/12/02 10:40:53;;;;;;;12.27;7.75;;;1.60;75.50;;;;;;5044489;28;20249;-76
2023/12/02 10:43:29;;;;;;;12.40;6.65;;;1.60;75.70;;;;;;5048579;28;20312;-76
2023/12/02 10:45:57;;;;;;;10.80;7.05;;;1.60;75.60;;;;;;5048165;28;21047;-76
2023/12/02 10:48:26;;;;;;;10.23;6.93;;;1.60;75.60;;;;;;5048626;28;20200;-76
2023/12/02 10:50:55;;;;;;;10.77;7.63;;;1.60;75.20;;;;;;5049902;28;20219;-76
2023/12/02 10:53:26;;;;;;;12.40;8.05;;;1.50;75.20;;;;;;5049734;28;20200;-75
2023/12/02 10:56:00;;;;;;;11.15;7.30;;;1.50;75.30;;;;;;5039585;28;20209;-75
2023/12/02 10:58:30;;;;;;;9.90;6.90;;;1.40;75.40;;;;;;5044506;28;20204;-75
2023/12/02 11:01:04;;;;;;;11.77;7.40;;;1.40;75.20;;;;;;5042012;28;20224;-76
2023/12/02 11:03:44;;;;;;;11.55;7.38;;;1.30;75.30;;;;;;5041992;28;20239;-75
2023/12/02 11:06:22;;;;;;;10.20;6.20;;;1.30;75.40;;;;;;5042806;28;20223;-76
2023/12/02 11:08:57;;;;;;;10.52;6.93;;;1.30;75.50;;;;;;5048622;28;20205;-75
2023/12/02 11:11:37;;;;;;;8.20;6.03;;;1.20;75.50;;;;;;5048317;28;20231;-76
2023/12/02 11:14:10;;;;;;;26.63;14.25;;;1.20;75.50;;;;;;5052077;28;20302;-76
2023/12/02 11:16:43;;;;;;;15.32;9.60;;;1.30;75.80;;;;;;5049846;28;20203;-75
2023/12/02 11:19:38;;;;;;;11.20;7.28;;;1.40;75.70;;;;;;5054695;28;20681;-76
2023/12/02 11:22:20;;;;;;;10.00;6.72;;;1.50;75.80;;;;;;5050152;28;20208;-76
2023/12/02 11:25:07;;;;;;;12.40;7.60;;;1.40;75.40;;;;;;5049561;28;20212;-76
2023/12/02 11:27:49;;;;;;;10.90;7.28;;;1.30;75.30;;;;;;5051470;28;20825;-75
2023/12/02 11:30:31;;;;;;;10.88;7.43;;;1.30;75.50;;;;;;5049242;28;20218;-76
2023/12/02 11:33:13;;;;;;;11.65;7.30;;;1.30;75.70;;;;;;5050259;28;20208;-76
2023/12/02 11:35:52;;;;;;;9.68;7.68;;;1.40;75.70;;;;;;5047161;28;20215;-75
2023/12/02 11:38:20;;;;;;;10.90;7.22;;;1.50;75.80;;;;;;5048889;28;20203;-76
2023/12/02 11:41:04;;;;;;;9.10;6.15;;;1.50;75.50;;;;;;5047241;28;20211;-76
2023/12/02 11:43:42;;;;;;;9.20;6.50;;;1.50;75.60;;;;;;5052356;28;20513;-75
2023/12/02 11:46:18;;;;;;;9.85;7.18;;;1.40;75.40;;;;;;5055310;28;20807;-76
2023/12/02 11:48:56;;;;;;;9.45;6.95;;;1.40;75.40;;;;;;5053330;28;20208;-75
2023/12/02 11:51:38;;;;;;;10.02;6.97;;;1.40;75.50;;;;;;5046285;28;20227;-75
2023/12/02 11:54:25;;;;;;;11.75;7.40;;;1.50;75.40;;;;;;5050988;28;20252;-76
2023/12/02 11:57:21;;;;;;;11.68;7.03;;;1.50;75.50;;;;;;5052274;28;20208;-76
2023/12/02 12:00:06;;;;;;;10.50;6.70;;;1.50;75.40;;;;;;5050589;28;20246;-77
2023/12/02 12:03:04;;;;;;;9.40;7.03;;;1.50;75.30;;;;;;5049305;28;20710;-76
2023/12/02 12:05:41;;;;;;;9.32;5.63;;;1.50;75.20;;;;;;5044059;28;20230;-76
2023/12/02 12:08:17;;;;;;;9.02;5.47;;;1.30;75.00;;;;;;5050786;28;20243;-75
2023/12/02 12:10:54;;;;;;;9.23;6.30;;;1.30;75.00;;;;;;5045192;28;20513;-76
2023/12/02 12:13:25;;;;;;;10.05;6.50;;;1.20;74.90;;;;;;5048925;28;20293;-76
2023/12/02 12:15:53;;;;;;;8.82;6.40;;;1.10;74.90;;;;;;5046085;28;20637;-76
2023/12/02 12:18:22;;;;;;;10.00;6.55;;;1.00;74.90;;;;;;5049583;28;20525;-76
2023/12/02 12:20:55;;;;;;;11.60;5.72;;;1.00;75.00;;;;;;5045417;28;20227;-75
2023/12/02 12:23:24;;;;;;;8.35;5.63;;;1.00;75.00;;;;;;5047548;28;20246;-75
2023/12/02 12:25:52;;;;;;;7.15;5.20;;;0.90;75.10;;;;;;5044867;28;20208;-76
2023/12/02 12:28:20;;;;;;;8.82;5.90;;;0.90;75.10;;;;;;5058003;28;20219;-76
2023/12/02 12:30:50;;;;;;;8.52;5.57;;;0.90;75.10;;;;;;5039750;28;20233;-76
2023/12/02 12:33:19;;;;;;;9.40;6.13;;;0.90;75.10;;;;;;5050839;28;20211;-76
2023/12/02 12:35:48;;;;;;;9.32;5.35;;;0.90;75.10;;;;;;5049531;28;20204;-75
2023/12/02 12:38:18;;;;;;;8.40;5.90;;;0.90;75.10;;;;;;5054545;28;20215;-76
2023/12/02 12:40:46;;;;;;;7.78;5.72;;;0.90;75.00;;;;;;5056159;28;20215;-76
2023/12/02 12:43:15;;;;;;;9.93;6.05;;;0.80;75.00;;;;;;5048889;28;20812;-76
2023/12/02 12:45:43;;;;;;;8.30;5.53;;;0.80;75.20;;;;;;5050182;28;20204;-76
2023/12/02 12:48:13;;;;;;;10.20;6.63;;;0.90;75.20;;;;;;5047029;28;20248;-75
2023/12/02 12:50:43;;;;;;;9.57;5.78;;;0.90;75.20;;;;;;5043505;28;20212;-75
2023/12/02 12:53:13;;;;;;;9.45;6.35;;;0.90;75.00;;;;;;5046434;28;20203;-76
2023/12/02 12:55:45;;;;;;;9.60;5.97;;;1.00;74.90;;;;;;5048353;28;20204;-75
2023/12/02 12:58:17;;;;;;;10.70;6.57;;;1.00;74.90;;;;;;5047698;28;20235;-76